Fillmore, Utah
Current Conditions -  °F | °C
As of 6:35 PM on Monday 22 Dec 2014 (Local Time) from KDTA Reporting Station
Clear Clear  
Wind Chill: 30°   Ceiling: Unl
Heat Index: 39°   Visibility: 10mi
Dew Point: 28°   Wind: 17mph
Humidity: 63%   Direction: 350°N
Pressure: 30.08"   Gusts: NA
Location:  38.97°N, 112.32°W
Report Text: KDTA 230135Z AUTO 35015KT 10SM CLR 04/M02 A3008 RMK AO1 T00401024
Loading
Personal Weather Stations






























Interactive Weather Map New forecast layout! Learn more

10-Day Weather Forecast

Advertisements
Track Severe Weather on mobile